Camp Grove, Illinois
Current Conditions -  °F | °C
As of 8:15 AM on Monday 20 Oct 2014 (Local Time) from KC75 Reporting Station
Clear Clear  
Wind Chill: 47°   Ceiling: Unl
Heat Index: 50°   Visibility: 10mi
Dew Point: 44°   Wind: 8mph
Humidity: 81%   Direction: 280°W
Pressure: 29.88"   Gusts: NA
Location:  41.08°N, 89.63°W
Report Text: KC75 201315Z AUTO 28007KT 10SM CLR 10/07 A2988 RMK AO2 T00990068
Loading
Personal Weather Stations






























Interactive Weather Map
Tropical Storm Tracking
New forecast layout! Learn more

10-Day Weather Forecast

Advertisements
Track Severe Weather on mobile